createdAt,value
2019-03-09T00:03:11.246Z,43.38
2019-03-09T00:07:16.939Z,43.12
2019-03-09T00:11:22.888Z,43.24
2019-03-09T00:15:29.603Z,43.91
2019-03-09T00:19:35.300Z,44.39
2019-03-09T00:23:52.832Z,44.31
2019-03-09T00:28:00.163Z,44.25
2019-03-09T00:32:07.634Z,44.27
2019-03-09T00:36:13.318Z,44.17
2019-03-09T00:40:19.081Z,44.26
2019-03-09T00:44:24.768Z,44.38
2019-03-09T00:48:30.458Z,43.94
2019-03-09T00:52:36.168Z,43.54
2019-03-09T00:56:42.122Z,43.40
2019-03-09T01:00:47.808Z,43.95
2019-03-09T01:04:54.646Z,44.19
2019-03-09T01:09:00.386Z,44.12
2019-03-09T01:13:07.891Z,44.07
2019-03-09T01:17:13.581Z,44.39
2019-03-09T01:21:19.277Z,44.69
2019-03-09T01:25:26.497Z,44.37
2019-03-09T01:29:32.183Z,44.86
2019-03-09T01:33:37.868Z,45.57
2019-03-09T01:37:43.557Z,45.37
2019-03-09T01:41:49.251Z,45.07
2019-03-09T01:45:54.940Z,45.30
2019-03-09T01:50:00.616Z,45.65
2019-03-09T01:54:06.526Z,45.99
2019-03-09T01:58:13.339Z,45.76
2019-03-09T02:02:19.037Z,45.90
2019-03-09T02:06:24.748Z,45.82
2019-03-09T02:10:32.015Z,46.31
2019-03-09T02:14:37.780Z,46.03
2019-03-09T02:18:43.462Z,46.19
2019-03-09T02:22:49.165Z,46.60
2019-03-09T02:26:54.856Z,46.40
2019-03-09T02:31:00.552Z,46.18
2019-03-09T02:35:13.229Z,46.92
2019-03-09T02:39:26.477Z,46.93
2019-03-09T02:43:32.255Z,47.76
2019-03-09T02:47:38.070Z,48.39
2019-03-09T02:51:43.901Z,48.62
2019-03-09T02:55:49.595Z,49.34
2019-03-09T02:59:55.268Z,48.96
2019-03-09T03:04:00.978Z,48.80
2019-03-09T03:08:06.754Z,49.31
2019-03-09T03:12:12.440Z,49.56
2019-03-09T03:16:18.163Z,49.47
2019-03-09T03:20:23.835Z,49.13
2019-03-09T03:24:29.548Z,48.92
2019-03-09T03:28:35.249Z,48.75
2019-03-09T03:32:40.949Z,48.86
2019-03-09T03:36:46.646Z,48.41
2019-03-09T03:40:52.344Z,48.89
2019-03-09T03:44:58.102Z,48.86
2019-03-09T03:49:04.089Z,48.38
2019-03-09T03:53:09.884Z,48.33
2019-03-09T03:57:15.580Z,47.29
2019-03-09T04:01:21.340Z,46.96
2019-03-09T04:05:27.128Z,46.62
2019-03-09T04:09:33.112Z,46.52
2019-03-09T04:13:38.999Z,46.44
2019-03-09T04:29:16.436Z,46.25
2019-03-09T04:34:16.372Z,46.95
2019-03-09T04:54:36.237Z,47.54
2019-03-09T04:58:59.603Z,47.81
2019-03-09T05:08:21.994Z,48.12
2019-03-09T05:17:18.598Z,49.51
2019-03-09T05:21:24.308Z,49.83
2019-03-09T05:25:30.002Z,49.34
2019-03-09T05:29:35.689Z,50.80
2019-03-09T05:33:59.460Z,51.96
2019-03-09T05:38:17.568Z,53.96
2019-03-09T05:42:23.259Z,54.67
2019-03-09T05:46:28.977Z,55.71
2019-03-09T05:50:34.725Z,55.92
2019-03-09T05:54:40.403Z,56.32
2019-03-09T06:03:21.348Z,55.52
2019-03-09T06:07:27.044Z,57.19
2019-03-09T06:11:33.357Z,57.03
2019-03-09T06:15:39.124Z,57.27
2019-03-09T06:19:44.810Z,57.80
2019-03-09T06:28:19.955Z,57.04
2019-03-09T06:32:36.123Z,56.39
2019-03-09T06:36:49.310Z,57.23
2019-03-09T06:41:02.635Z,57.12
2019-03-09T06:45:04.513Z,56.62
2019-03-09T06:49:10.288Z,57.16
2019-03-09T06:53:15.957Z,56.56
2019-03-09T06:57:21.702Z,56.34
2019-03-09T07:01:27.391Z,56.03
2019-03-09T07:05:33.073Z,55.25
2019-03-09T07:09:39.715Z,55.12
2019-03-09T07:13:52.500Z,55.55
2019-03-09T07:17:55.923Z,54.97
2019-03-09T07:22:01.603Z,54.57
2019-03-09T07:26:07.298Z,55.14
2019-03-09T07:34:52.416Z,54.45
2019-03-09T07:38:58.114Z,54.10
2019-03-09T07:43:04.381Z,52.11
2019-03-09T07:47:10.361Z,52.02
2019-03-09T07:51:16.052Z,50.36
2019-03-09T07:55:23.611Z,48.25
2019-03-09T07:59:29.296Z,47.65
2019-03-09T08:03:34.993Z,49.12
2019-03-09T08:07:40.691Z,48.91
2019-03-09T08:11:46.405Z,49.68
2019-03-09T08:15:52.149Z,49.59
2019-03-09T08:19:57.913Z,49.92
2019-03-09T08:24:03.629Z,50.74
2019-03-09T08:28:09.388Z,49.60
2019-03-09T08:32:15.140Z,48.45
2019-03-09T08:36:20.827Z,47.69
2019-03-09T08:40:26.519Z,48.20
2019-03-09T08:44:32.198Z,48.92
2019-03-09T08:48:37.956Z,47.21
2019-03-09T08:52:43.729Z,46.79
2019-03-09T08:56:49.414Z,48.22
2019-03-09T09:00:55.162Z,47.53
2019-03-09T09:05:00.831Z,47.66
2019-03-09T09:09:07.643Z,47.98
2019-03-09T09:13:13.729Z,48.31
2019-03-09T09:17:19.431Z,48.53
2019-03-09T09:21:25.130Z,48.33
2019-03-09T09:25:30.823Z,47.88
2019-03-09T09:29:39.571Z,48.29
2019-03-09T09:33:43.898Z,48.30
2019-03-09T09:37:49.660Z,48.47
2019-03-09T09:41:55.402Z,48.56
2019-03-09T09:46:01.178Z,49.22
2019-03-09T09:50:11.573Z,48.71
2019-03-09T09:54:17.253Z,48.48
2019-03-09T09:58:22.950Z,48.20
2019-03-09T10:02:28.644Z,48.06
2019-03-09T10:06:34.368Z,48.48
2019-03-09T10:10:40.075Z,48.44
2019-03-09T10:14:45.742Z,48.11
2019-03-09T10:18:51.432Z,47.47
2019-03-09T10:23:04.143Z,47.28
2019-03-09T10:27:04.695Z,48.33
2019-03-09T10:31:10.403Z,47.61
2019-03-09T10:35:16.081Z,47.08
2019-03-09T10:39:21.777Z,46.92
2019-03-09T10:43:27.480Z,46.99
2019-03-09T10:47:33.173Z,47.30
2019-03-09T10:51:38.884Z,47.57
2019-03-09T10:55:44.633Z,46.35
2019-03-09T10:59:50.315Z,47.05
2019-03-09T11:03:56.016Z,47.88
2019-03-09T11:08:01.895Z,48.02
2019-03-09T11:12:07.596Z,47.87
2019-03-09T11:16:14.386Z,47.21
2019-03-09T11:20:21.772Z,47.33
2019-03-09T11:24:27.507Z,47.89
2019-03-09T11:28:33.205Z,48.07
2019-03-09T11:32:38.895Z,47.68
2019-03-09T11:36:44.674Z,47.58
2019-03-09T11:40:57.598Z,47.35
2019-03-09T11:44:57.883Z,46.35
2019-03-09T11:49:03.588Z,46.38
2019-03-09T11:53:09.363Z,46.06
2019-03-09T11:57:16.183Z,46.42
2019-03-09T12:01:21.842Z,46.35
2019-03-09T12:05:27.545Z,46.47
2019-03-09T12:09:33.259Z,46.74
2019-03-09T12:13:39.021Z,46.60
2019-03-09T12:17:44.705Z,46.68
2019-03-09T12:21:50.445Z,46.36
2019-03-09T12:25:56.134Z,46.21
2019-03-09T12:30:03.761Z,46.79
2019-03-09T12:34:09.412Z,47.24
2019-03-09T12:38:15.116Z,47.26
2019-03-09T12:42:20.822Z,47.03
2019-03-09T12:46:26.514Z,46.99
2019-03-09T12:50:32.281Z,46.45
2019-03-09T12:54:38.002Z,46.44
2019-03-09T12:58:46.052Z,47.36
2019-03-09T13:02:51.247Z,47.62
2019-03-09T13:06:57.015Z,47.89
2019-03-09T13:11:02.772Z,47.12
2019-03-09T13:15:10.385Z,46.43
2019-03-09T13:19:17.170Z,46.24
2019-03-09T13:23:22.875Z,46.61
2019-03-09T13:27:28.658Z,46.52
2019-03-09T13:31:34.339Z,47.42
2019-03-09T13:35:40.035Z,47.15
2019-03-09T13:39:45.794Z,46.56
2019-03-09T13:43:51.488Z,46.08
2019-03-09T13:47:57.174Z,46.33
2019-03-09T13:52:02.886Z,46.43
2019-03-09T13:56:08.599Z,46.52
2019-03-09T14:00:18.582Z,47.08
2019-03-09T14:04:25.220Z,46.71
2019-03-09T14:08:30.935Z,46.44
2019-03-09T14:12:36.685Z,47.09
2019-03-09T14:16:42.388Z,47.34
2019-03-09T14:20:48.497Z,49.13
2019-03-09T14:24:54.247Z,50.58
2019-03-09T14:29:00.890Z,52.09
2019-03-09T14:33:06.668Z,52.71
2019-03-09T14:37:12.384Z,51.60
2019-03-09T14:41:18.080Z,53.03
2019-03-09T14:45:24.834Z,52.92
2019-03-09T14:49:30.507Z,52.74
2019-03-09T14:53:36.210Z,52.93
2019-03-09T14:57:42.344Z,52.07
2019-03-09T15:01:48.039Z,52.00
2019-03-09T15:05:53.797Z,51.26
2019-03-09T15:10:01.015Z,50.80
2019-03-09T15:14:06.946Z,50.63
2019-03-09T15:18:12.653Z,50.06
2019-03-09T15:22:18.375Z,50.24
2019-03-09T15:26:24.059Z,49.78
2019-03-09T15:30:29.779Z,50.41
2019-03-09T15:34:35.463Z,50.97
2019-03-09T15:38:41.157Z,50.99
2019-03-09T15:42:46.955Z,51.54
2019-03-09T15:46:52.624Z,51.76
2019-03-09T15:50:58.563Z,52.29
2019-03-09T15:55:05.194Z,52.81
2019-03-09T15:59:11.167Z,52.90
2019-03-09T16:03:16.852Z,53.47
2019-03-09T16:07:22.543Z,53.72
2019-03-09T16:11:28.238Z,53.42
2019-03-09T16:15:33.935Z,53.39
2019-03-09T16:19:39.630Z,53.47
2019-03-09T16:23:45.363Z,53.15
2019-03-09T16:27:51.196Z,52.76
2019-03-09T16:31:58.655Z,52.33
2019-03-09T16:36:04.501Z,52.49
2019-03-09T16:40:22.052Z,52.12
2019-03-09T16:44:27.759Z,51.98
2019-03-09T16:48:33.529Z,51.86
2019-03-09T16:52:39.242Z,51.61
2019-03-09T16:56:45.004Z,51.40
2019-03-09T17:00:50.714Z,51.22
2019-03-09T17:04:56.488Z,51.10
2019-03-09T17:09:02.292Z,51.03
2019-03-09T17:13:18.423Z,50.87
2019-03-09T17:17:28.023Z,50.76
2019-03-09T17:21:33.446Z,50.98
2019-03-09T17:26:18.451Z,51.04
2019-03-09T17:30:24.278Z,51.40
2019-03-09T17:34:29.969Z,51.56
2019-03-09T17:38:35.694Z,51.50
2019-03-09T17:43:17.696Z,51.45
2019-03-09T17:47:23.392Z,50.97
2019-03-09T17:51:30.790Z,50.35
2019-03-09T17:55:36.491Z,49.82
2019-03-09T17:59:42.245Z,49.71
2019-03-09T18:03:47.953Z,49.88
2019-03-09T18:07:53.707Z,49.60
2019-03-09T18:11:59.406Z,49.45
2019-03-09T18:16:05.179Z,49.31
2019-03-09T18:20:12.798Z,49.75
2019-03-09T18:24:18.575Z,49.80
2019-03-09T18:28:24.283Z,49.79
2019-03-09T18:33:03.534Z,49.53
2019-03-09T18:37:09.325Z,49.60
2019-03-09T18:41:14.995Z,49.38
2019-03-09T18:45:24.942Z,49.64
2019-03-09T18:49:30.640Z,49.96
2019-03-09T18:53:36.367Z,49.65
2019-03-09T18:57:42.082Z,49.53
2019-03-09T19:01:47.804Z,49.17
2019-03-09T19:05:53.512Z,49.15
2019-03-09T19:09:59.211Z,48.85
2019-03-09T19:14:05.032Z,48.17
2019-03-09T19:18:10.718Z,48.24
2019-03-09T19:22:16.460Z,47.50
2019-03-09T19:26:22.182Z,47.36
2019-03-09T19:30:27.872Z,47.01
2019-03-09T19:34:33.564Z,46.90
2019-03-09T19:38:39.261Z,46.87
2019-03-09T19:42:45.041Z,46.32
2019-03-09T19:46:50.750Z,46.18
2019-03-09T19:50:56.450Z,45.42
2019-03-09T19:55:02.163Z,45.48
2019-03-09T19:59:07.893Z,45.62
2019-03-09T20:03:13.608Z,45.55
2019-03-09T20:07:19.372Z,45.19
2019-03-09T20:11:25.053Z,45.20
2019-03-09T20:15:30.826Z,45.08
2019-03-09T20:19:36.491Z,45.29
2019-03-09T20:23:42.196Z,44.71
2019-03-09T20:27:47.885Z,45.01
2019-03-09T20:31:53.608Z,45.03
2019-03-09T20:35:59.380Z,45.00
2019-03-09T20:40:11.957Z,45.21
2019-03-09T20:44:17.646Z,45.25
2019-03-09T20:48:23.428Z,45.23
2019-03-09T20:52:29.117Z,45.39
2019-03-09T20:56:34.825Z,45.68
2019-03-09T21:00:40.501Z,45.93
2019-03-09T21:04:46.194Z,46.29
2019-03-09T21:08:51.936Z,46.76
2019-03-09T21:13:07.008Z,47.34
2019-03-09T21:17:12.701Z,48.22
2019-03-09T21:21:18.412Z,48.65
2019-03-09T21:25:24.300Z,49.15
2019-03-09T21:29:30.017Z,49.38
2019-03-09T21:33:35.707Z,49.84
2019-03-09T21:37:41.392Z,49.58
2019-03-09T21:41:47.115Z,49.88
2019-03-09T21:45:52.812Z,49.85
2019-03-09T21:49:58.516Z,49.99
2019-03-09T21:54:04.205Z,50.15
2019-03-09T21:58:09.880Z,50.00
2019-03-09T22:02:16.850Z,50.43
2019-03-09T22:06:22.615Z,50.87
2019-03-09T22:10:29.953Z,50.66
2019-03-09T22:14:35.647Z,50.83
2019-03-09T22:18:41.352Z,50.88
2019-03-09T22:22:48.083Z,50.61
2019-03-09T22:26:53.780Z,50.99
2019-03-09T22:30:59.531Z,51.29
2019-03-09T22:35:05.711Z,50.92
2019-03-09T22:39:11.410Z,51.10
2019-03-09T22:43:17.143Z,51.06
2019-03-09T22:47:22.815Z,51.03
2019-03-09T22:51:28.532Z,51.17
2019-03-09T22:55:34.186Z,50.94
2019-03-09T22:59:39.962Z,51.21
2019-03-09T23:03:45.765Z,51.29
2019-03-09T23:07:51.520Z,50.99
2019-03-09T23:11:57.295Z,50.89
2019-03-09T23:16:03.044Z,50.60
2019-03-09T23:20:12.253Z,50.75
2019-03-09T23:24:17.946Z,51.22
2019-03-09T23:28:23.662Z,50.97
2019-03-09T23:32:29.400Z,51.07
2019-03-09T23:36:35.073Z,51.27
2019-03-09T23:40:40.769Z,50.82
2019-03-09T23:44:46.463Z,50.98
2019-03-09T23:48:52.663Z,51.44
2019-03-09T23:52:58.598Z,51.65
2019-03-09T23:57:04.299Z,51.61
